女満別空港の過去48時間の天気

女満別空港 (Memanbetsu)

現在時刻: 12/11 17:01 JST (12/11 08:01 UTC) 以下の時間は現地時間です。

過去48時間のMETAR気象情報
時間 風向 風速(m/s) 視程 気温(℃) 湿度(%) 気圧(hPa) 天気現象
11 16:00 静穏 0 10km以上 -5 53 1024
11 15:00 不定 1 10km以上 -2 43 1024
11 14:00 3 10km以上 -1 43 1024
11 13:00 西南西 2 10km以上 -1 43 1024
11 12:00 西南西 2 10km以上 -2 46 1024
11 11:00 南南西 4 10km以上 -4 50 1025
11 10:00 南南西 2 10km以上 -7 53 1026
11 09:00 4 10km以上 -11 67 1026
11 08:00 南南西 3 10km以上 -12 72 1025
11 07:45 3 10km以上 -14 72 1025
10 20:00 南南西 2 10km以上 -8 57 1024
10 19:00 3 10km以上 -9 62 1024
10 18:00 南西 2 10km以上 -5 45 1023
10 17:00 西 2 10km以上 -5 42 1022
10 16:00 西南西 2 10km以上 -4 42 1022
10 15:00 不定 1 10km以上 -4 46 1021
10 14:00 西 3 10km以上 -3 39 1020
10 13:00 西 4 10km以上 -3 42 1019
10 12:00 西 3 10km以上 -3 39 1019
10 11:00 3 10km以上 -5 49 1019
10 10:00 2 10km以上 -7 62 1019
10 09:00 南南西 2 10km以上 -10 67 1019
10 08:00 4 10km以上 -14 78 1019
10 07:45 3 10km以上 -16 71 1019
9 20:00 南南西 2 10km以上 -11 67 1015
9 19:00 西南西 2 10km以上 -7 41 1015
9 18:00 西 3 10km以上 -6 41 1015
RJCM 110700Z 00000KT 9999 FEW020 M05/M13 Q1024
RJCM 110600Z VRB02KT 9999 FEW030 M02/M13 Q1024
RJCM 110500Z 19005KT 9999 FEW040 M01/M12 Q1024
RJCM 110400Z 24003KT 190V270 9999 FEW040 M01/M12 Q1024
RJCM 110300Z 24003KT 170V280 9999 FEW040 M02/M12 Q1024
RJCM 110200Z 21007KT 9999 FEW040 M04/M13 Q1025
RJCM 110100Z 20004KT 170V230 9999 FEW040 M07/M15 Q1026
RJCM 110000Z 18007KT 9999 FEW040 M11/M16 Q1026
RJCM 102300Z 20005KT 150V270 9999 FEW040 M12/M16 Q1025
RJCM 102245Z 18006KT 9999 FEW040 M14/M18 Q1025 RMK 1CU040 A3029
RJCM 101100Z 21004KT 9999 FEW030 SCT130 M08/M15 Q1024
RJCM 101000Z 19005KT 9999 FEW030 M09/M15 Q1024
RJCM 100900Z 23003KT 9999 FEW030 M05/M15 Q1023
RJCM 100800Z 26004KT 210V310 9999 FEW030 M05/M16 Q1022
RJCM 100700Z 25004KT 190V300 9999 FEW030 BKN110 M04/M15 Q1022
RJCM 100600Z VRB01KT 9999 FEW040 SCT050 BKN120 M04/M14 Q1021
RJCM 100500Z 26006KT 190V350 9999 FEW025 SCT050 BKN080 M03/M15 Q1020
RJCM 100400Z 28007KT 210V350 9999 FEW020 SCT040 BKN050 M03/M14 Q1019
RJCM 100300Z 28006G17KT 210V340 9999 FEW030 SCT040 BKN050 M03/M15 Q1019
RJCM 100200Z 19005KT 160V230 9999 FEW030 BKN060 M05/M14 Q1019
RJCM 100100Z 19004KT 9999 FEW030 M07/M13 Q1019
RJCM 100000Z 21004KT 9999 FEW030 M10/M15 Q1019
RJCM 092300Z 18008KT 9999 FEW030 M14/M17 Q1019
RJCM 092245Z 19006KT 9999 FEW030 M16/M20 Q1019 RMK 1CU030 A3009
RJCM 091100Z 21004KT 170V280 9999 FEW020 M11/M16 Q1015
RJCM 091000Z 24004KT 200V330 9999 FEW020 M07/M18 Q1015
RJCM 090900Z 28006KT 230V340 9999 FEW020 M06/M17 Q1015